Time;durP1;ratioP1;P1;durP2;ratioP2;P2;SDS_P1;SDS_P2;PMS_P1;PMS_P2;Temp;Humidity;BMP_temperature;BMP_pressure;BME280_temperature;BME280_humidity;BME280_pressure;Samples;Min_cycle;Max_cycle;Signal;HPM_P1;HPM_P2
2023/04/24 00:00:25;;;;;;;10.27;7.28;;;;;;;10.48;83.26;99923.50;5023958;28;20026;-91
2023/04/24 00:02:50;;;;;;;11.15;9.05;;;;;;;10.45;83.45;99912.25;5028593;28;20026;-93
2023/04/24 00:05:17;;;;;;;14.07;8.68;;;;;;;10.58;82.89;99904.50;5013864;28;20037;-91
2023/04/24 00:07:44;;;;;;;9.90;8.57;;;;;;;10.58;82.65;99917.72;5010735;28;20527;-91
2023/04/24 00:10:09;;;;;;;13.43;10.88;;;;;;;10.40;83.36;99911.66;5015548;28;20022;-93
2023/04/24 00:12:35;;;;;;;14.05;10.15;;;;;;;10.57;82.75;99901.00;5010047;28;20400;-91
2023/04/24 00:15:01;;;;;;;13.23;9.57;;;;;;;10.52;82.38;99905.69;5027733;28;20025;-90
2023/04/24 00:17:27;;;;;;;20.45;11.63;;;;;;;10.50;82.79;99907.56;4996483;28;20087;-92
2023/04/24 00:19:58;;;;;;;14.52;9.25;;;;;;;10.56;82.25;99901.09;5004310;28;20026;-91
2023/04/24 00:22:23;;;;;;;15.35;10.52;;;;;;;10.59;82.49;99904.44;4981423;28;20651;-90
2023/04/24 00:24:49;;;;;;;14.50;10.88;;;;;;;10.64;82.67;99928.81;5003953;28;20049;-92
2023/04/24 00:27:14;;;;;;;16.85;10.85;;;;;;;10.48;82.69;99912.06;4988204;28;20041;-91
2023/04/24 00:29:39;;;;;;;16.48;11.70;;;;;;;10.56;83.14;99935.44;4992896;28;20022;-92
2023/04/24 00:32:05;;;;;;;18.45;12.25;;;;;;;10.40;83.19;99915.16;4979253;28;20037;-91
2023/04/24 00:34:32;;;;;;;19.75;11.05;;;;;;;10.45;82.75;99925.47;4989786;28;20025;-91
2023/04/24 00:36:57;;;;;;;21.98;12.38;;;;;;;10.48;83.07;99931.41;4992049;28;20038;-91
2023/04/24 00:39:22;;;;;;;21.00;13.32;;;;;;;10.26;83.57;99920.34;4979168;28;20026;-91
2023/04/24 00:41:48;;;;;;;18.23;12.98;;;;;;;10.37;83.72;99931.16;5002410;28;20033;-91
2023/04/24 00:44:14;;;;;;;21.63;13.95;;;;;;;10.26;83.62;99925.63;4989228;28;20041;-91
2023/04/24 00:46:40;;;;;;;20.80;12.70;;;;;;;10.29;83.96;99929.88;5004335;28;20077;-92
2023/04/24 00:49:06;;;;;;;19.98;12.68;;;;;;;10.27;84.01;99931.75;4988852;28;20033;-92
2023/04/24 00:51:32;;;;;;;21.13;12.85;;;;;;;10.31;84.16;99935.94;4991820;28;20085;-93
2023/04/24 00:54:01;;;;;;;23.85;13.77;;;;;;;10.24;83.84;99930.09;5004698;28;20041;-92
2023/04/24 00:56:26;;;;;;;20.25;13.02;;;;;;;10.27;83.92;99937.88;4991136;28;20077;-92
2023/04/24 00:58:52;;;;;;;20.40;13.13;;;;;;;10.18;83.58;99918.06;5000559;28;20053;-93
2023/04/24 01:01:21;;;;;;;18.75;12.50;;;;;;;10.27;83.70;99951.09;4982845;28;20056;-92
2023/04/24 01:03:48;;;;;;;23.52;13.63;;;;;;;10.23;84.26;99933.66;4991236;28;20041;-92
2023/04/24 01:06:15;;;;;;;22.10;12.30;;;;;;;10.12;84.19;99921.03;5003754;28;20383;-93
2023/04/24 01:08:41;;;;;;;20.67;14.48;;;;;;;10.14;83.68;99919.16;5005478;28;20037;-93
2023/04/24 01:11:06;;;;;;;25.75;13.95;;;;;;;10.08;83.81;99914.19;4994140;28;20053;-93
2023/04/24 01:13:33;;;;;;;20.05;12.88;;;;;;;10.12;84.03;99928.97;4992799;28;20064;-92
2023/04/24 01:15:58;;;;;;;25.33;13.77;;;;;;;10.16;84.46;99937.53;5010210;28;20594;-92
2023/04/24 01:18:24;;;;;;;21.15;15.75;;;;;;;9.95;85.26;99926.34;5015248;28;20018;-92
2023/04/24 01:20:52;;;;;;;23.75;13.75;;;;;;;10.01;86.46;99938.34;5018310;28;20029;-92
2023/04/24 01:23:18;;;;;;;24.05;13.40;;;;;;;9.99;85.79;99914.69;5021947;28;20474;-91
2023/04/24 01:25:44;;;;;;;27.30;14.63;;;;;;;9.91;86.06;99928.28;5001989;28;20208;-91
2023/04/24 01:28:09;;;;;;;20.83;14.20;;;;;;;9.91;86.33;99927.44;5016056;28;20132;-89
2023/04/24 01:30:35;;;;;;;21.40;14.23;;;;;;;9.82;87.24;99927.91;5008383;28;20477;-91
2023/04/24 01:33:01;;;;;;;24.05;17.00;;;;;;;9.75;87.54;99921.25;5001113;28;20436;-90
2023/04/24 01:35:26;;;;;;;22.35;16.70;;;;;;;9.70;87.75;99932.03;5018026;28;20028;-89
2023/04/24 01:37:51;;;;;;;27.70;17.10;;;;;;;9.61;88.17;99924.59;5018815;28;20044;-90
2023/04/24 01:40:17;;;;;;;29.00;16.33;;;;;;;9.66;88.79;99926.06;5004117;28;20033;-90
2023/04/24 01:42:42;;;;;;;30.20;16.50;;;;;;;9.63;88.60;99920.06;5023452;28;20060;-90
2023/04/24 01:45:10;;;;;;;27.25;16.15;;;;;;;9.55;88.51;99909.91;5025796;28;20699;-89
2023/04/24 01:47:36;;;;;;;26.40;16.75;;;;;;;9.59;88.72;99919.38;5007768;28;20432;-89
2023/04/24 01:50:01;;;;;;;31.90;18.58;;;;;;;9.68;88.36;99933.88;5020162;28;20030;-90
2023/04/24 01:52:28;;;;;;;30.27;17.85;;;;;;;9.69;88.11;99931.16;5022042;28;20029;-91
2023/04/24 01:54:55;;;;;;;34.53;18.60;;;;;;;9.70;88.47;99934.69;5008215;28;20076;-91
2023/04/24 01:57:21;;;;;;;30.50;19.40;;;;;;;9.64;88.28;99927.06;5022822;28;20124;-90
2023/04/24 01:59:46;;;;;;;32.05;19.02;;;;;;;9.57;88.31;99902.78;5008923;28;20455;-90
2023/04/24 02:02:11;;;;;;;30.92;18.15;;;;;;;9.62;87.98;99923.66;5017723;28;20564;-91
2023/04/24 02:04:36;;;;;;;31.02;21.67;;;;;;;9.68;87.98;99925.97;5024517;28;20033;-91
2023/04/24 02:07:02;;;;;;;39.00;22.10;;;;;;;9.63;88.15;99930.63;5026269;28;20021;-92
2023/04/24 02:09:27;;;;;;;35.53;19.77;;;;;;;9.56;87.69;99924.81;5006927;28;20436;-91
2023/04/24 02:11:52;;;;;;;32.03;20.00;;;;;;;9.48;87.82;99937.53;5022316;28;20029;-91
2023/04/24 02:14:18;;;;;;;31.17;19.92;;;;;;;9.52;88.21;99933.81;5005309;28;20021;-90
2023/04/24 02:16:43;;;;;;;30.70;19.17;;;;;;;9.58;88.17;99946.69;5026408;28;20053;-91
2023/04/24 02:19:09;;;;;;;31.70;20.33;;;;;;;9.52;87.85;99949.66;5018952;28;20063;-90
2023/04/24 02:21:34;;;;;;;32.35;21.15;;;;;;;9.50;87.85;99940.09;5008592;28;20024;-91
2023/04/24 02:23:59;;;;;;;27.67;17.60;;;;;;;9.56;87.75;99953.84;5023814;28;20504;-90
2023/04/24 02:26:25;;;;;;;29.63;17.33;;;;;;;9.55;87.40;99938.06;5026237;28;20462;-91
2023/04/24 02:28:51;;;;;;;31.65;21.90;;;;;;;9.43;87.49;99934.28;5023380;28;20033;-92
2023/04/24 02:31:16;;;;;;;24.25;16.08;;;;;;;9.53;87.09;99932.88;5029543;28;20025;-90
2023/04/24 02:33:42;;;;;;;29.45;17.95;;;;;;;9.54;87.24;99939.88;5026539;28;20512;-90
2023/04/24 02:36:07;;;;;;;31.75;19.73;;;;;;;9.56;87.35;99934.50;5020265;28;20051;-90
2023/04/24 02:38:32;;;;;;;23.52;15.13;;;;;;;9.54;87.33;99925.81;5019498;28;20477;-91
2023/04/24 02:40:58;;;;;;;29.08;17.65;;;;;;;9.50;87.18;99919.84;5004546;28;20323;-91
2023/04/24 02:43:23;;;;;;;29.05;18.67;;;;;;;9.55;86.91;99925.72;5034609;28;20026;-90
2023/04/24 02:45:48;;;;;;;27.70;18.00;;;;;;;9.55;87.98;99928.38;5011040;28;20396;-91
2023/04/24 02:48:14;;;;;;;29.30;19.45;;;;;;;9.41;88.12;99910.59;5010282;28;20370;-90
2023/04/24 02:50:39;;;;;;;28.85;19.33;;;;;;;9.44;87.78;99907.81;5010427;28;20025;-91
2023/04/24 02:53:05;;;;;;;33.13;21.45;;;;;;;9.43;88.00;99921.09;5029906;28;20102;-92
2023/04/24 02:55:30;;;;;;;29.58;17.92;;;;;;;9.47;87.49;99913.88;5023447;28;20489;-89
2023/04/24 02:57:56;;;;;;;25.17;16.05;;;;;;;9.53;87.36;99927.59;5035157;28;20033;-90
2023/04/24 03:00:21;;;;;;;30.85;18.90;;;;;;;9.60;87.03;99925.50;5005136;28;20100;-90
2023/04/24 03:02:46;;;;;;;27.45;16.48;;;;;;;9.51;87.23;99913.63;5008651;28;20026;-91
2023/04/24 03:05:12;;;;;;;29.08;19.05;;;;;;;9.50;86.71;99924.25;5018344;28;20120;-91
2023/04/24 03:07:37;;;;;;;24.50;16.65;;;;;;;9.40;87.31;99913.31;5008523;28;20033;-92
2023/04/24 03:10:04;;;;;;;28.42;17.80;;;;;;;9.43;87.12;99908.75;5011991;28;20132;-92
2023/04/24 03:12:30;;;;;;;28.17;16.55;;;;;;;9.40;87.15;99908.91;5029207;28;20028;-91
2023/04/24 03:14:55;;;;;;;27.60;17.77;;;;;;;9.48;87.07;99926.13;5025959;28;20032;-92
2023/04/24 03:17:20;;;;;;;25.60;15.60;;;;;;;9.50;86.73;99926.91;5025705;28;20546;-93
2023/04/24 03:19:45;;;;;;;31.38;17.63;;;;;;;9.50;87.12;99922.47;5027204;28;20416;-93
2023/04/24 03:22:12;;;;;;;27.70;18.70;;;;;;;9.46;86.71;99920.91;5001473;28;20072;-93
2023/04/24 03:24:37;;;;;;;30.73;18.45;;;;;;;9.55;85.50;99927.53;5012308;28;20163;-92
2023/04/24 03:27:02;;;;;;;28.13;17.38;;;;;;;9.56;85.43;99913.38;5030225;28;20496;-93
2023/04/24 03:29:29;;;;;;;28.77;16.40;;;;;;;9.70;85.80;99935.53;5009490;28;20346;-92
2023/04/24 03:31:54;;;;;;;26.73;17.10;;;;;;;9.59;85.18;99922.00;5015232;28;20029;-93
2023/04/24 03:34:19;;;;;;;30.83;15.65;;;;;;;9.63;85.10;99928.00;5028702;28;20040;-92
2023/04/24 03:36:47;;;;;;;28.00;17.58;;;;;;;9.65;84.47;99928.75;5005058;28;20116;-94
2023/04/24 03:39:12;;;;;;;25.60;15.98;;;;;;;9.56;84.89;99905.47;5016661;28;20067;-95
2023/04/24 03:41:38;;;;;;;27.25;16.33;;;;;;;9.65;84.89;99931.41;5016468;28;20140;-94
2023/04/24 03:44:03;;;;;;;23.83;14.75;;;;;;;9.47;84.69;99901.53;5009367;28;20029;-92
2023/04/24 03:46:29;;;;;;;25.38;15.20;;;;;;;9.46;84.55;99889.25;5034573;28;20049;-92
2023/04/24 03:48:54;;;;;;;27.23;15.32;;;;;;;9.52;84.16;99899.53;5010974;28;20065;-93
2023/04/24 03:51:20;;;;;;;23.83;14.77;;;;;;;9.64;84.40;99921.78;5016980;28;20535;-92
2023/04/24 03:53:45;;;;;;;19.55;13.07;;;;;;;9.62;84.17;99915.72;5028991;28;20439;-92
2023/04/24 03:56:10;;;;;;;22.50;15.05;;;;;;;9.54;84.27;99912.63;5011880;28;20029;-93
2023/04/24 03:58:36;;;;;;;29.70;16.83;;;;;;;9.64;84.50;99927.06;5008124;28;20402;-92
2023/04/24 04:01:02;;;;;;;23.73;14.50;;;;;;;9.44;84.86;99921.00;5010655;28;20034;-92
2023/04/24 04:03:27;;;;;;;20.63;14.85;;;;;;;9.43;85.32;99915.81;5017812;28;20108;-92
2023/04/24 04:05:54;;;;;;;19.45;12.30;;;;;;;9.42;85.04;99911.47;5014352;28;20465;-93
2023/04/24 04:08:19;;;;;;;25.88;15.25;;;;;;;9.55;84.92;99925.72;5020477;28;20044;-92
2023/04/24 04:10:44;;;;;;;25.13;13.52;;;;;;;9.42;84.68;99914.97;5028357;28;20400;-92
2023/04/24 04:13:10;;;;;;;24.75;13.57;;;;;;;9.45;84.45;99913.94;5007319;28;20029;-92
2023/04/24 04:15:35;;;;;;;18.20;12.60;;;;;;;9.51;85.33;99918.03;5013048;28;20034;-92
2023/04/24 04:18:01;;;;;;;22.23;13.15;;;;;;;9.52;84.76;99922.41;5027889;28;20060;-92
2023/04/24 04:20:26;;;;;;;18.00;11.13;;;;;;;9.43;84.67;99906.13;5011185;28;20065;-91
2023/04/24 04:22:51;;;;;;;19.73;14.30;;;;;;;9.49;84.76;99922.56;5012730;28;20033;-91
2023/04/24 04:25:19;;;;;;;21.42;13.15;;;;;;;9.61;84.75;99930.72;5002790;28;20558;-91
2023/04/24 04:27:44;;;;;;;19.77;13.77;;;;;;;9.41;85.30;99930.84;5009652;28;20028;-92
2023/04/24 04:30:10;;;;;;;22.67;13.27;;;;;;;9.47;85.61;99924.44;5020390;28;20105;-92
2023/04/24 04:32:35;;;;;;;18.55;13.07;;;;;;;9.40;85.51;99915.97;5007611;28;20033;-92
2023/04/24 04:35:04;;;;;;;19.15;13.13;;;;;;;9.37;85.94;99926.66;5035366;28;20504;-92
2023/04/24 04:37:33;;;;;;;20.85;12.90;;;;;;;9.43;86.05;99931.66;5011518;28;20447;-92
2023/04/24 04:40:06;;;;;;;21.70;13.75;;;;;;;9.36;86.65;99933.72;5010719;28;20049;-92
2023/04/24 04:42:32;;;;;;;20.20;12.70;;;;;;;9.23;86.70;99929.13;5031344;28;20026;-92
2023/04/24 04:44:57;;;;;;;22.02;14.07;;;;;;;9.37;86.46;99938.09;5016176;28;20036;-91
2023/04/24 04:47:23;;;;;;;18.63;12.38;;;;;;;9.30;86.53;99930.53;5010051;28;20021;-92
2023/04/24 04:49:48;;;;;;;17.75;12.90;;;;;;;9.31;86.80;99937.53;5029433;28;20037;-90
2023/04/24 04:52:14;;;;;;;17.48;12.77;;;;;;;9.30;86.84;99927.91;5009461;28;20421;-93
2023/04/24 04:54:39;;;;;;;18.00;11.55;;;;;;;9.34;86.56;99935.59;5013140;28;20394;-91
2023/04/24 04:57:05;;;;;;;17.35;12.30;;;;;;;9.28;86.99;99930.63;5026787;28;20357;-92
2023/04/24 04:59:30;;;;;;;17.63;12.05;;;;;;;9.25;87.50;99945.75;5004582;28;20018;-92
2023/04/24 05:01:55;;;;;;;17.15;11.95;;;;;;;9.31;87.37;99945.44;5031777;28;20036;-91
2023/04/24 05:04:21;;;;;;;17.83;13.63;;;;;;;9.26;87.72;99948.28;5017502;28;20028;-91
2023/04/24 05:06:47;;;;;;;17.20;11.30;;;;;;;9.36;87.62;99957.47;5015073;28;20099;-92
2023/04/24 05:09:12;;;;;;;15.48;12.02;;;;;;;9.19;88.23;99944.25;5012343;28;20074;-91
2023/04/24 05:11:38;;;;;;;16.77;11.48;;;;;;;9.24;88.06;99930.84;5015792;28;20121;-92
2023/04/24 05:14:03;;;;;;;16.23;10.55;;;;;;;9.35;87.60;99962.81;5022255;28;20025;-92
2023/04/24 05:16:28;;;;;;;14.05;10.50;;;;;;;9.42;87.14;99943.13;4995729;28;20054;-92
2023/04/24 05:18:54;;;;;;;15.10;11.07;;;;;;;9.43;86.84;99947.47;4994164;28;20092;-91
2023/04/24 05:21:19;;;;;;;14.65;10.27;;;;;;;9.42;86.58;99943.97;4986945;28;20824;-91
2023/04/24 05:23:45;;;;;;;13.27;9.27;;;;;;;9.55;86.38;99957.41;5005439;28;20092;-91
2023/04/24 05:26:10;;;;;;;19.90;10.90;;;;;;;9.56;86.89;99968.81;5003567;28;20053;-92
2023/04/24 05:28:36;;;;;;;13.63;8.73;;;;;;;9.50;86.85;99953.28;4987759;28;20026;-92
2023/04/24 05:31:02;;;;;;;11.98;8.95;;;;;;;9.42;88.38;99974.78;4990195;28;20023;-91
2023/04/24 05:33:28;;;;;;;12.65;9.00;;;;;;;9.33;89.48;99978.72;4999988;28;20065;-90
2023/04/24 05:35:53;;;;;;;9.75;7.18;;;;;;;9.34;88.27;99963.75;4999774;28;20068;-91
2023/04/24 05:38:19;;;;;;;7.18;5.72;;;;;;;9.41;87.30;99965.16;5000820;28;20026;-92
2023/04/24 05:40:47;;;;;;;7.43;4.60;;;;;;;9.42;86.74;99973.00;4995367;28;20579;-92
2023/04/24 05:43:13;;;;;;;8.93;4.82;;;;;;;9.49;86.38;99985.88;5000733;28;20469;-91
2023/04/24 05:45:38;;;;;;;7.40;4.72;;;;;;;9.41;86.68;99967.78;4982883;28;20030;-91
2023/04/24 05:48:05;;;;;;;7.43;5.18;;;;;;;9.26;87.59;99977.31;4982414;28;20600;-91
2023/04/24 05:50:30;;;;;;;5.28;3.92;;;;;;;9.39;87.77;99981.06;5001952;28;20085;-90
2023/04/24 05:52:57;;;;;;;5.22;4.18;;;;;;;9.41;87.60;99991.53;5004032;28;20041;-91
2023/04/24 05:55:24;;;;;;;3.28;2.60;;;;;;;9.29;87.69;99987.72;4985431;28;20084;-91
2023/04/24 05:57:49;;;;;;;4.47;2.83;;;;;;;9.32;88.03;99994.59;5003206;28;20030;-91
2023/04/24 06:00:15;;;;;;;4.53;2.72;;;;;;;9.29;88.30;99992.13;4985930;28;20103;-91
2023/04/24 06:02:41;;;;;;;3.97;2.83;;;;;;;9.28;88.33;100011.50;4988100;28;20030;-91
2023/04/24 06:05:07;;;;;;;5.10;2.67;;;;;;;9.33;88.49;100036.75;5003851;28;20446;-90
2023/04/24 06:07:33;;;;;;;5.57;2.90;;;;;;;9.46;87.81;100037.00;4991540;28;20098;-90
2023/04/24 06:09:58;;;;;;;3.88;2.20;;;;;;;9.55;87.17;100046.25;4991107;28;20061;-90
2023/04/24 06:12:25;;;;;;;3.17;2.60;;;;;;;9.45;87.49;100030.03;5003707;28;20026;-91
2023/04/24 06:14:51;;;;;;;4.13;2.92;;;;;;;9.51;87.63;100039.41;4986059;28;20022;-91
2023/04/24 06:17:16;;;;;;;4.38;3.13;;;;;;;9.51;87.70;100035.00;5013502;28;20045;-91
2023/04/24 06:19:41;;;;;;;3.33;3.00;;;;;;;9.59;87.58;100051.31;5008986;28;20037;-90
2023/04/24 06:22:07;;;;;;;5.55;2.95;;;;;;;9.59;87.97;100039.91;5007346;28;20382;-90
2023/04/24 06:24:34;;;;;;;3.75;3.40;;;;;;;9.68;88.01;100076.41;5006587;28;20032;-90
2023/04/24 06:27:01;;;;;;;4.05;3.63;;;;;;;9.67;87.45;100077.34;5018266;28;20521;-92
2023/04/24 06:29:26;;;;;;;3.47;3.00;;;;;;;9.52;87.16;100044.66;5012977;28;20038;-91
2023/04/24 06:31:51;;;;;;;5.03;3.30;;;;;;;9.85;85.82;100070.31;5021667;28;20038;-91
2023/04/24 06:34:16;;;;;;;5.15;3.20;;;;;;;9.95;86.32;100069.78;5022502;28;20033;-90
2023/04/24 06:36:42;;;;;;;3.03;2.72;;;;;;;10.00;85.33;100082.75;5001618;28;20351;-90
2023/04/24 06:39:07;;;;;;;4.82;3.25;;;;;;;9.84;86.76;100090.59;5016998;28;20033;-91
2023/04/24 06:41:32;;;;;;;3.38;3.08;;;;;;;9.86;86.34;100109.81;4999352;28;20052;-90
2023/04/24 06:43:58;;;;;;;4.53;3.38;;;;;;;9.83;86.60;100099.41;5008943;28;20029;-90
2023/04/24 06:46:25;;;;;;;5.40;4.10;;;;;;;9.82;86.91;100107.41;5021421;28;20048;-90
2023/04/24 06:48:57;;;;;;;5.45;3.80;;;;;;;9.83;86.02;100101.19;5011000;28;20033;-90
2023/04/24 06:51:26;;;;;;;7.45;5.38;;;;;;;9.80;86.69;100098.72;5012548;28;20156;-91
2023/04/24 06:53:53;;;;;;;5.13;4.18;;;;;;;9.87;86.41;100130.00;5018265;28;20025;-91
2023/04/24 06:56:19;;;;;;;5.55;4.65;;;;;;;9.84;86.50;100116.97;5004203;28;20104;-91
2023/04/24 06:58:45;;;;;;;5.22;4.05;;;;;;;9.87;86.30;100129.16;5018746;28;20516;-91
2023/04/24 07:01:10;;;;;;;6.07;4.38;;;;;;;9.91;85.77;100146.56;5021338;28;20053;-89
2023/04/24 07:03:36;;;;;;;7.13;5.43;;;;;;;9.86;86.28;100135.38;5019659;28;20033;-89
2023/04/24 07:06:03;;;;;;;7.13;5.55;;;;;;;9.89;85.95;100151.09;5024143;28;20094;-89
2023/04/24 07:08:30;;;;;;;10.98;6.03;;;;;;;9.86;86.60;100172.34;5005829;28;22011;-90
2023/04/24 07:10:56;;;;;;;9.38;6.93;;;;;;;9.85;85.92;100182.03;5007934;28;20064;-91
2023/04/24 07:13:22;;;;;;;13.48;8.30;;;;;;;9.83;85.17;100190.94;5004743;28;20028;-91
2023/04/24 07:15:50;;;;;;;11.02;7.28;;;;;;;9.83;84.57;100194.44;5022005;28;20049;-88
2023/04/24 07:18:15;;;;;;;11.85;8.02;;;;;;;9.82;84.61;100202.44;5026582;28;20041;-90
2023/04/24 07:20:41;;;;;;;11.20;7.85;;;;;;;9.80;83.84;100223.66;5025743;28;20527;-90
2023/04/24 07:23:06;;;;;;;16.25;7.97;;;;;;;9.76;83.39;100224.72;5036333;28;20509;-90
2023/04/24 07:25:31;;;;;;;13.85;8.65;;;;;;;9.75;84.10;100232.72;5010147;28;20025;-90
2023/04/24 07:27:57;;;;;;;13.98;8.10;;;;;;;9.76;84.04;100243.19;5023109;28;20056;-90
2023/04/24 07:30:22;;;;;;;12.73;8.43;;;;;;;9.69;83.86;100245.25;5010036;28;20489;-88
2023/04/24 07:32:47;;;;;;;14.98;8.35;;;;;;;9.71;83.69;100255.75;5011878;28;20035;-90
2023/04/24 07:35:13;;;;;;;15.55;8.07;;;;;;;9.68;83.82;100256.75;5009290;28;20116;-91
2023/04/24 07:37:38;;;;;;;13.52;8.40;;;;;;;9.74;84.56;100278.50;5029255;28;20045;-90
2023/04/24 07:40:04;;;;;;;14.35;7.90;;;;;;;9.70;84.40;100268.09;5017465;28;20038;-90
2023/04/24 07:42:34;;;;;;;14.32;7.90;;;;;;;9.72;84.46;100275.94;5009818;28;20484;-90
2023/04/24 07:44:59;;;;;;;10.15;6.85;;;;;;;9.74;83.88;100284.63;5030178;28;20543;-89
2023/04/24 07:47:25;;;;;;;13.20;6.78;;;;;;;9.74;83.70;100302.25;5008709;28;20109;-89
2023/04/24 07:49:50;;;;;;;12.13;6.65;;;;;;;9.76;84.03;100303.06;5009839;28;20045;-89
2023/04/24 07:52:15;;;;;;;10.90;6.07;;;;;;;9.79;82.83;100310.81;5029583;28;20055;-90
2023/04/24 07:54:42;;;;;;;14.35;6.55;;;;;;;9.82;82.22;100318.63;5026957;28;20053;-89
2023/04/24 07:57:08;;;;;;;9.60;5.53;;;;;;;9.82;82.02;100334.44;5026187;28;20029;-91
2023/04/24 07:59:33;;;;;;;10.10;5.95;;;;;;;9.80;82.83;100323.13;5025127;28;20037;-90
2023/04/24 08:01:59;;;;;;;14.00;6.88;;;;;;;9.83;82.40;100338.78;5025921;28;20017;-90
2023/04/24 08:04:24;;;;;;;13.48;5.82;;;;;;;9.82;82.22;100347.66;5023314;28;20080;-90
2023/04/24 08:06:49;;;;;;;15.00;5.13;;;;;;;9.80;82.35;100350.38;5010835;28;20026;-90
2023/04/24 08:09:15;;;;;;;13.70;6.00;;;;;;;9.57;83.19;100345.25;5012929;28;20006;-90
2023/04/24 08:11:40;;;;;;;10.85;5.13;;;;;;;9.60;83.21;100361.78;5007730;28;20037;-91
2023/04/24 08:14:05;;;;;;;15.00;5.10;;;;;;;9.67;83.10;100365.88;5023428;28;20037;-91
2023/04/24 08:16:32;;;;;;;17.75;5.95;;;;;;;9.68;83.84;100364.09;5018595;28;20124;-91
2023/04/24 08:18:59;;;;;;;13.45;5.82;;;;;;;9.70;84.32;100376.31;5026795;28;20049;-92
2023/04/24 08:21:26;;;;;;;16.10;6.70;;;;;;;9.70;83.55;100371.03;5031242;28;20116;-91
2023/04/24 08:23:51;;;;;;;13.38;6.05;;;;;;;9.76;83.33;100379.63;5018187;28;20403;-92
2023/04/24 08:26:16;;;;;;;10.68;5.75;;;;;;;9.73;83.50;100385.00;5023029;28;20017;-90
2023/04/24 08:28:42;;;;;;;17.33;6.72;;;;;;;9.75;83.52;100393.75;5017483;28;20102;-91
2023/04/24 08:31:07;;;;;;;18.17;6.15;;;;;;;9.76;84.60;100403.38;5011395;28;20024;-91
2023/04/24 08:33:34;;;;;;;15.13;6.00;;;;;;;9.75;84.56;100405.16;5028529;28;20021;-91
2023/04/24 08:36:05;;;;;;;13.85;6.25;;;;;;;9.75;84.07;100417.50;5027208;28;20069;-93
2023/04/24 08:38:30;;;;;;;17.55;6.88;;;;;;;9.82;84.13;100417.16;5027037;28;20264;-92
2023/04/24 08:40:58;;;;;;;14.23;6.03;;;;;;;9.76;83.54;100420.06;5006568;28;20489;-92
2023/04/24 08:43:24;;;;;;;19.05;6.53;;;;;;;9.82;83.79;100426.84;5027193;28;20104;-90
2023/04/24 08:45:50;;;;;;;16.45;5.47;;;;;;;9.82;83.98;100440.91;5026526;28;20026;-90
2023/04/24 08:48:16;;;;;;;17.77;5.65;;;;;;;9.81;83.74;100447.13;5025513;28;20362;-91
2023/04/24 08:50:42;;;;;;;13.10;4.45;;;;;;;9.76;83.06;100441.19;5009342;28;20026;-92
2023/04/24 08:53:08;;;;;;;11.55;4.45;;;;;;;9.84;83.51;100451.38;5024795;28;20036;-92
2023/04/24 08:55:34;;;;;;;11.63;4.70;;;;;;;9.88;83.24;100451.19;5030493;28;20095;-92
2023/04/24 08:58:02;;;;;;;13.32;5.60;;;;;;;9.95;83.36;100447.38;5020642;28;20488;-92
2023/04/24 09:00:27;;;;;;;12.95;5.28;;;;;;;10.26;83.67;100453.97;5023949;28;20029;-92
2023/04/24 09:02:53;;;;;;;20.38;5.65;;;;;;;10.51;82.95;100453.72;5007837;28;20088;-93
2023/04/24 09:05:21;;;;;;;11.20;4.57;;;;;;;10.73;81.16;100469.44;5026188;28;20033;-93
2023/04/24 09:07:55;;;;;;;14.90;3.80;;;;;;;10.61;80.17;100462.06;5028460;28;20477;-92
2023/04/24 09:10:24;;;;;;;10.70;3.47;;;;;;;10.43;79.24;100458.47;5027599;28;20032;-92
2023/04/24 09:12:51;;;;;;;10.25;3.63;;;;;;;10.32;77.77;100481.91;5026521;28;20037;-94
2023/04/24 09:15:16;;;;;;;12.38;3.47;;;;;;;10.11;78.27;100483.66;5032520;28;20037;-92
2023/04/24 09:17:42;;;;;;;9.98;3.35;;;;;;;10.07;78.38;100490.88;4985381;28;20058;-94
2023/04/24 09:20:08;;;;;;;16.30;3.88;;;;;;;10.03;79.78;100488.44;5005355;28;20030;-94
2023/04/24 09:22:34;;;;;;;8.57;3.35;;;;;;;10.05;79.64;100491.88;4985624;28;20038;-93
2023/04/24 09:25:03;;;;;;;9.90;4.00;;;;;;;10.16;78.24;100498.38;5005575;28;20109;-94
2023/04/24 09:27:28;;;;;;;8.57;2.90;;;;;;;10.29;77.00;100505.81;4981051;28;20422;-93
2023/04/24 09:29:55;;;;;;;9.55;3.33;;;;;;;10.36;76.13;100500.19;5012902;28;20048;-92
2023/04/24 09:32:22;;;;;;;8.88;2.83;;;;;;;10.60;75.02;100507.94;4991629;28;20061;-92
2023/04/24 09:34:48;;;;;;;10.63;3.35;;;;;;;10.97;75.08;100525.63;5015992;28;20040;-93
2023/04/24 09:37:27;;;;;;;7.75;3.03;;;;;;;11.00;74.76;100533.38;4988139;28;20030;-94
2023/04/24 09:40:12;;;;;;;11.07;2.88;;;;;;;10.71;75.43;100521.53;4991488;28;20075;-93
2023/04/24 09:42:37;;;;;;;16.02;3.60;;;;;;;10.53;75.92;100532.94;4989241;28;20037;-92
2023/04/24 09:45:03;;;;;;;8.98;3.22;;;;;;;10.41;76.51;100537.00;4991114;28;20030;-92
2023/04/24 09:47:36;;;;;;;8.48;3.40;;;;;;;10.28;75.96;100546.38;5002853;28;20096;-92
2023/04/24 09:50:09;;;;;;;8.88;3.78;;;;;;;10.20;77.05;100544.88;4984099;28;20037;-92
2023/04/24 09:52:35;;;;;;;10.55;3.92;;;;;;;10.09;76.60;100554.22;5006652;28;20038;-91
2023/04/24 09:55:00;;;;;;;7.75;3.67;;;;;;;10.19;77.26;100558.16;5001243;28;20024;-92
2023/04/24 09:57:25;;;;;;;12.77;4.25;;;;;;;10.25;77.14;100560.56;5000114;28;20370;-92
2023/04/24 09:59:53;;;;;;;11.07;4.20;;;;;;;10.50;75.78;100565.66;4998060;28;20481;-92
2023/04/24 10:02:20;;;;;;;6.43;3.33;;;;;;;10.71;75.07;100563.81;4980750;28;20029;-92
2023/04/24 10:04:56;;;;;;;10.05;3.30;;;;;;;10.95;74.67;100573.28;5000763;28;20034;-92
2023/04/24 10:07:21;;;;;;;8.98;2.25;;;;;;;11.03;71.78;100578.22;5006662;28;20018;-92
2023/04/24 10:09:47;;;;;;;8.85;2.38;;;;;;;11.22;70.06;100570.28;5003343;28;20030;-93
2023/04/24 10:12:13;;;;;;;6.57;2.35;;;;;;;11.44;71.16;100567.50;5005050;28;20030;-92
2023/04/24 10:14:38;;;;;;;7.35;2.30;;;;;;;11.67;67.45;100577.81;5002833;28;20469;-93
2023/04/24 10:17:04;;;;;;;6.22;2.10;;;;;;;11.72;66.78;100578.44;5006128;28;20393;-92
2023/04/24 10:19:30;;;;;;;9.02;1.95;;;;;;;11.69;68.35;100575.94;4991844;28;20022;-92
2023/04/24 10:21:57;;;;;;;5.57;1.92;;;;;;;11.64;66.52;100583.25;5005917;28;20458;-90
2023/04/24 10:24:33;;;;;;;5.47;1.92;;;;;;;11.46;68.33;100590.28;5005130;28;20033;-93
2023/04/24 10:27:01;;;;;;;3.33;2.00;;;;;;;11.35;66.44;100591.75;5004353;28;20026;-93
2023/04/24 10:29:27;;;;;;;6.65;2.15;;;;;;;11.26;66.76;100587.75;5005039;28;20023;-93
2023/04/24 10:31:52;;;;;;;1.70;1.10;;;;;;;11.19;67.54;100587.19;4989456;28;20409;-93
2023/04/24 10:34:20;;;;;;;6.50;1.83;;;;;;;11.14;64.41;100586.50;5014177;28;20042;-93
2023/04/24 10:36:51;;;;;;;5.75;1.42;;;;;;;11.26;67.03;100622.16;4987038;28;20426;-93
2023/04/24 10:39:17;;;;;;;2.15;1.20;;;;;;;11.22;65.04;100608.19;4990411;28;20497;-93
2023/04/24 10:41:43;;;;;;;3.50;0.80;;;;;;;11.27;65.16;100621.22;4981817;28;20038;-92
2023/04/24 10:44:15;;;;;;;2.58;1.13;;;;;;;11.12;64.93;100612.19;4991688;28;20025;-92
2023/04/24 10:46:47;;;;;;;4.20;0.98;;;;;;;11.17;66.64;100636.66;5004500;28;20469;-92
2023/04/24 10:49:12;;;;;;;2.38;0.90;;;;;;;11.09;65.04;100617.63;5002628;28;20037;-92
2023/04/24 10:51:49;;;;;;;4.82;0.95;;;;;;;11.14;64.31;100635.94;4994140;28;20381;-92
2023/04/24 10:54:29;;;;;;;4.97;1.42;;;;;;;11.19;65.97;100626.88;5000647;28;20028;-95
2023/04/24 10:57:23;;;;;;;5.40;1.02;;;;;;;11.33;66.06;100641.22;5004612;28;20041;-92
2023/04/24 11:00:12;;;;;;;1.90;0.77;;;;;;;11.14;65.26;100638.56;5012519;28;20490;-92
2023/04/24 11:02:40;;;;;;;5.20;0.90;;;;;;;11.15;64.55;100651.75;4999400;28;20484;-92
2023/04/24 11:05:06;;;;;;;2.42;1.00;;;;;;;11.20;65.48;100657.69;5010712;28;20022;-93
2023/04/24 11:08:10;;;;;;;3.20;1.00;;;;;;;11.24;67.15;100653.13;5006754;28;20025;-92
2023/04/24 11:10:39;;;;;;;5.43;1.10;;;;;;;11.17;66.22;100657.81;5000974;28;20405;-92
2023/04/24 11:13:04;;;;;;;6.10;2.35;;;;;;;11.17;65.64;100655.16;5010047;28;20196;-93
2023/04/24 11:15:29;;;;;;;4.57;1.15;;;;;;;11.13;65.72;100655.38;5002465;28;20464;-93
2023/04/24 11:17:55;;;;;;;2.28;1.00;;;;;;;11.15;65.33;100672.91;5006311;28;20030;-93
2023/04/24 11:20:23;;;;;;;2.58;1.10;;;;;;;11.13;66.07;100656.25;5027021;28;20025;-93
2023/04/24 11:22:52;;;;;;;4.57;1.08;;;;;;;11.08;65.33;100655.59;5024758;28;21129;-93